Nulato, Alaska
Current Conditions -  °F | °C
As of 11:53 PM on Friday 21 Nov 2014 (Local Time) from PAKV Reporting Station
Clear Clear  
Wind Chill:   Ceiling: Unl
Heat Index: 15°   Visibility: 10mi
Dew Point: -1°   Wind: 15mph
Humidity: 49%   Direction: 50°NE
Pressure: 29.3"   Gusts: 23mph
Location:  64.72°N, 158.13°W
Report Text: PAKV 220853Z AUTO 05013G20KT 10SM CLR M09/M18 A2930 RMK AO1 SLP924 T10941183 410171100 53012 FZRANO TSNO
Loading
Personal Weather Stations






























Interactive Weather Map New forecast layout! Learn more

10-Day Weather Forecast

Advertisements
Track Severe Weather on mobile